METAR Data
IDs: Format: Raw Decoded Include TAF

Data at: 1322 UTC 21 Apr 2021

METAR for:KDEH (Decorah Muni, IA, US)
Text:KDEH 211315Z AUTO 31006KT 10SM SCT050 SCT060 M01/M06 A3014 RMK AO2
Temperature: -1.0°C ( 30°F)
Dewpoint: -6.0°C ( 21°F) [RH = 69%]
Pressure (altimeter):30.14 inches Hg (1020.7 mb)
Winds:from the NW (310 degrees) at 7 MPH (6 knots; 3.1 m/s)
Visibility:10 or more sm (16+ km)
Ceiling:at least 12,000 feet AGL
Clouds: scattered clouds at 5000 feet AGL, scattered clouds at 6000 feet AGL
QC Flag:automated observation with no human augmentation